createdAt,value
2023-11-15T00:01:17.042Z,35.50
2023-11-15T00:03:44.975Z,31.20
2023-11-15T00:06:13.771Z,27.65
2023-11-15T00:08:41.776Z,34.60
2023-11-15T00:11:09.708Z,47.90
2023-11-15T00:13:37.291Z,46.70
2023-11-15T00:16:05.866Z,53.53
2023-11-15T00:18:33.621Z,46.80
2023-11-15T00:21:01.512Z,58.92
2023-11-15T00:23:29.160Z,39.78
2023-11-15T00:25:56.829Z,59.10
2023-11-15T00:28:24.401Z,60.38
2023-11-15T00:30:52.065Z,58.85
2023-11-15T00:33:20.246Z,61.20
2023-11-15T00:35:48.106Z,39.35
2023-11-15T00:38:16.267Z,47.25
2023-11-15T00:40:44.196Z,49.67
2023-11-15T00:43:12.393Z,55.40
2023-11-15T00:45:40.197Z,58.70
2023-11-15T00:48:07.973Z,43.83
2023-11-15T00:50:35.780Z,47.95
2023-11-15T00:53:04.981Z,43.97
2023-11-15T00:55:32.872Z,38.50
2023-11-15T00:58:01.487Z,46.92
2023-11-15T01:00:33.889Z,43.78
2023-11-15T01:03:02.888Z,42.70
2023-11-15T01:05:30.878Z,35.60
2023-11-15T01:07:59.330Z,44.53
2023-11-15T01:10:26.962Z,47.50
2023-11-15T01:12:55.755Z,42.85
2023-11-15T01:15:23.580Z,41.28
2023-11-15T01:17:51.964Z,42.50
2023-11-15T01:20:19.944Z,47.90
2023-11-15T01:22:48.147Z,40.25
2023-11-15T01:25:15.939Z,43.40
2023-11-15T01:27:44.117Z,41.20
2023-11-15T01:30:11.865Z,44.28
2023-11-15T01:32:39.460Z,39.45
2023-11-15T01:35:07.255Z,42.72
2023-11-15T01:37:34.818Z,34.95
2023-11-15T01:40:03.187Z,49.45
2023-11-15T01:42:31.063Z,48.25
2023-11-15T01:44:58.851Z,44.42
2023-11-15T01:47:26.665Z,43.28
2023-11-15T01:49:54.843Z,39.45
2023-11-15T01:52:22.405Z,37.00
2023-11-15T01:54:52.077Z,39.38
2023-11-15T01:57:20.114Z,46.90
2023-11-15T01:59:47.829Z,41.63
2023-11-15T02:02:16.255Z,34.38
2023-11-15T02:04:43.831Z,27.42
2023-11-15T02:07:11.429Z,32.65
2023-11-15T02:09:39.552Z,34.90
2023-11-15T02:12:07.765Z,42.05
2023-11-15T02:14:35.643Z,41.10
2023-11-15T02:17:03.284Z,38.08
2023-11-15T02:19:31.198Z,38.30
2023-11-15T02:21:59.100Z,42.80
2023-11-15T02:24:26.791Z,39.10
2023-11-15T02:26:54.331Z,36.40
2023-11-15T02:29:21.982Z,31.08
2023-11-15T02:31:49.751Z,23.40
2023-11-15T02:34:17.441Z,29.33
2023-11-15T02:36:45.170Z,47.58
2023-11-15T02:39:12.878Z,34.75
2023-11-15T02:41:40.572Z,33.90
2023-11-15T02:44:10.489Z,28.85
2023-11-15T02:46:38.552Z,39.63
2023-11-15T02:49:06.279Z,39.22
2023-11-15T02:51:34.110Z,36.38
2023-11-15T02:54:03.997Z,36.88
2023-11-15T02:56:31.964Z,37.88
2023-11-15T02:59:00.047Z,35.28
2023-11-15T03:01:30.660Z,37.75
2023-11-15T03:06:26.201Z,33.28
2023-11-15T03:08:54.214Z,32.70
2023-11-15T03:11:21.968Z,33.92
2023-11-15T03:13:50.017Z,37.85
2023-11-15T03:16:17.771Z,31.27
2023-11-15T03:18:45.533Z,40.28
2023-11-15T03:21:13.189Z,31.35
2023-11-15T03:23:40.831Z,31.70
2023-11-15T03:26:08.406Z,27.08
2023-11-15T03:28:36.063Z,39.75
2023-11-15T03:31:03.696Z,34.00
2023-11-15T03:33:31.681Z,33.53
2023-11-15T03:35:59.689Z,27.08
2023-11-15T03:38:27.674Z,33.90
2023-11-15T03:40:55.774Z,38.22
2023-11-15T03:43:23.735Z,23.92
2023-11-15T03:45:51.601Z,17.90
2023-11-15T03:48:19.560Z,17.33
2023-11-15T03:50:47.544Z,22.88
2023-11-15T03:53:15.412Z,28.05
2023-11-15T03:55:47.686Z,37.97
2023-11-15T03:58:15.772Z,30.25
2023-11-15T04:00:43.492Z,37.42
2023-11-15T04:03:11.341Z,24.88
2023-11-15T04:05:39.216Z,38.85
2023-11-15T04:08:07.024Z,30.55
2023-11-15T04:10:34.682Z,35.95
2023-11-15T04:13:02.259Z,25.52
2023-11-15T04:15:30.052Z,43.47
2023-11-15T04:17:57.813Z,38.45
2023-11-15T04:20:25.680Z,27.52
2023-11-15T04:22:53.464Z,34.85
2023-11-15T04:25:21.033Z,40.08
2023-11-15T04:27:48.514Z,31.90
2023-11-15T04:30:17.428Z,36.70
2023-11-15T04:32:46.789Z,38.00
2023-11-15T04:35:14.374Z,41.47
2023-11-15T04:37:41.998Z,35.75
2023-11-15T04:40:10.600Z,39.00
2023-11-15T04:42:38.657Z,23.45
2023-11-15T04:45:06.569Z,27.42
2023-11-15T04:47:34.188Z,34.20
2023-11-15T04:50:01.716Z,27.85
2023-11-15T04:52:29.244Z,44.28
2023-11-15T04:54:57.000Z,37.53
2023-11-15T04:57:27.039Z,46.72
2023-11-15T04:59:57.093Z,39.03
2023-11-15T05:02:25.059Z,32.72
2023-11-15T05:04:53.698Z,27.80
2023-11-15T05:07:24.023Z,28.65
2023-11-15T05:09:51.770Z,37.00
2023-11-15T05:12:19.313Z,38.95
2023-11-15T05:14:46.934Z,48.00
2023-11-15T05:17:15.294Z,39.88
2023-11-15T05:19:42.811Z,35.78
2023-11-15T05:22:10.347Z,37.60
2023-11-15T05:24:38.136Z,37.78
2023-11-15T05:27:05.754Z,43.03
2023-11-15T05:29:33.673Z,35.85
2023-11-15T05:32:01.480Z,36.70
2023-11-15T05:34:29.740Z,34.20
2023-11-15T05:36:57.256Z,42.47
2023-11-15T05:39:24.760Z,50.72
2023-11-15T05:41:53.135Z,41.90
2023-11-15T05:44:21.260Z,30.10
2023-11-15T05:46:48.919Z,24.77
2023-11-15T05:49:17.189Z,29.30
2023-11-15T05:51:47.747Z,33.80
2023-11-15T05:54:15.880Z,33.80
2023-11-15T05:56:45.891Z,25.85
2023-11-15T05:59:13.519Z,32.72
2023-11-15T06:01:41.441Z,28.88
2023-11-15T06:04:09.605Z,46.33
2023-11-15T06:06:37.326Z,30.70
2023-11-15T06:09:05.760Z,36.40
2023-11-15T06:11:34.054Z,31.55
2023-11-15T06:14:01.611Z,34.85
2023-11-15T06:16:29.144Z,32.40
2023-11-15T06:18:57.296Z,36.22
2023-11-15T06:21:24.726Z,42.42
2023-11-15T06:23:52.912Z,34.10
2023-11-15T06:26:21.074Z,51.10
2023-11-15T06:28:50.418Z,34.78
2023-11-15T06:31:18.160Z,31.92
2023-11-15T06:33:45.962Z,44.88
2023-11-15T06:36:14.081Z,38.25
2023-11-15T06:38:41.641Z,43.30
2023-11-15T06:41:11.061Z,38.80
2023-11-15T06:43:38.614Z,46.63
2023-11-15T06:46:06.662Z,35.30
2023-11-15T06:48:35.504Z,46.17
2023-11-15T06:51:03.455Z,38.45
2023-11-15T06:53:31.139Z,47.35
2023-11-15T06:56:00.213Z,37.83
2023-11-15T06:58:28.377Z,39.55
2023-11-15T07:00:56.543Z,51.65
2023-11-15T07:03:24.143Z,35.53
2023-11-15T07:05:51.838Z,42.83
2023-11-15T07:08:22.191Z,35.55
2023-11-15T07:10:49.774Z,50.25
2023-11-15T07:13:18.251Z,38.75
2023-11-15T07:15:47.130Z,37.08
2023-11-15T07:18:15.202Z,39.88
2023-11-15T07:20:43.159Z,47.22
2023-11-15T07:23:10.918Z,44.28
2023-11-15T07:25:38.907Z,40.83
2023-11-15T07:28:09.454Z,47.47
2023-11-15T07:33:05.335Z,29.10
2023-11-15T07:35:37.382Z,38.22
2023-11-15T07:38:05.542Z,33.00
2023-11-15T07:40:34.217Z,40.45
2023-11-15T07:43:02.156Z,39.85
2023-11-15T07:45:30.880Z,47.97
2023-11-15T07:47:59.696Z,38.03
2023-11-15T07:50:29.411Z,38.05
2023-11-15T07:52:57.667Z,26.57
2023-11-15T07:55:25.530Z,40.45
2023-11-15T07:57:53.281Z,37.78
2023-11-15T08:00:24.324Z,37.95
2023-11-15T08:02:53.379Z,37.22
2023-11-15T08:05:21.775Z,42.38
2023-11-15T08:07:49.901Z,29.48
2023-11-15T08:10:17.962Z,27.98
2023-11-15T08:12:46.212Z,35.00
2023-11-15T08:15:16.347Z,26.92
2023-11-15T08:17:47.754Z,29.35
2023-11-15T08:20:18.681Z,32.17
2023-11-15T08:22:46.418Z,22.63
2023-11-15T08:25:14.437Z,29.88
2023-11-15T08:27:43.516Z,41.05
2023-11-15T08:30:18.981Z,28.80
2023-11-15T08:32:47.660Z,24.60
2023-11-15T08:35:18.745Z,17.98
2023-11-15T08:37:46.340Z,25.95
2023-11-15T08:40:23.225Z,26.63
2023-11-15T08:42:56.787Z,21.52
2023-11-15T08:45:25.251Z,26.42
2023-11-15T08:47:54.001Z,23.25
2023-11-15T08:50:23.511Z,25.77
2023-11-15T08:52:51.301Z,23.10
2023-11-15T08:55:19.809Z,27.95
2023-11-15T08:57:47.732Z,39.80
2023-11-15T09:00:17.533Z,30.35
2023-11-15T09:02:47.620Z,32.00
2023-11-15T09:05:17.254Z,38.05
2023-11-15T09:07:45.730Z,43.05
2023-11-15T09:10:15.224Z,23.17
2023-11-15T09:12:46.271Z,31.17
2023-11-15T09:15:14.339Z,32.63
2023-11-15T09:17:49.210Z,27.45
2023-11-15T09:20:22.831Z,30.70
2023-11-15T09:22:51.025Z,35.67
2023-11-15T09:25:31.790Z,25.77
2023-11-15T09:28:01.602Z,26.95
2023-11-15T09:30:32.416Z,19.27
2023-11-15T09:33:01.256Z,24.08
2023-11-15T09:35:32.717Z,29.50
2023-11-15T09:38:00.499Z,29.73
2023-11-15T09:40:28.728Z,26.52
2023-11-15T09:43:03.753Z,31.95
2023-11-15T09:45:34.032Z,31.42
2023-11-15T09:48:03.820Z,37.15
2023-11-15T09:50:35.045Z,23.52
2023-11-15T09:53:09.448Z,28.83
2023-11-15T09:55:37.678Z,25.42
2023-11-15T09:58:05.393Z,28.38
2023-11-15T10:00:33.810Z,23.77
2023-11-15T10:03:02.474Z,33.67
2023-11-15T10:05:30.428Z,27.75
2023-11-15T10:08:12.713Z,30.85
2023-11-15T10:10:43.110Z,31.67
2023-11-15T10:13:13.821Z,30.15
2023-11-15T10:15:41.797Z,23.08
2023-11-15T10:18:09.741Z,20.95
2023-11-15T10:20:37.513Z,37.90
2023-11-15T10:23:05.174Z,27.65
2023-11-15T10:25:33.117Z,20.65
2023-11-15T10:28:11.939Z,26.73
2023-11-15T10:30:41.650Z,14.95
2023-11-15T10:33:15.325Z,26.65
2023-11-15T10:35:44.761Z,20.27
2023-11-15T10:38:24.372Z,27.02
2023-11-15T10:40:53.946Z,18.90
2023-11-15T10:43:21.829Z,26.63
2023-11-15T10:45:52.264Z,24.10
2023-11-15T10:50:59.365Z,35.88
2023-11-15T10:53:28.340Z,25.63
2023-11-15T10:55:57.853Z,19.65
2023-11-15T10:58:25.606Z,20.48
2023-11-15T11:00:55.796Z,18.48
2023-11-15T11:03:26.041Z,27.20
2023-11-15T11:08:26.865Z,17.33
2023-11-15T11:11:10.941Z,18.25
2023-11-15T11:13:42.059Z,19.88
2023-11-15T11:16:35.048Z,24.25
2023-11-15T11:19:15.105Z,20.23
2023-11-15T11:22:07.907Z,17.73
2023-11-15T11:24:37.461Z,20.70
2023-11-15T11:27:15.485Z,16.40
2023-11-15T11:30:09.058Z,23.45
2023-11-15T11:32:37.219Z,29.67
2023-11-15T11:35:06.388Z,22.05
2023-11-15T11:37:46.299Z,24.95
2023-11-15T11:40:14.920Z,22.80
2023-11-15T11:42:45.429Z,25.20
2023-11-15T11:45:14.220Z,30.00
2023-11-15T11:47:43.014Z,24.80
2023-11-15T11:50:10.905Z,28.40
2023-11-15T11:52:40.922Z,21.42
2023-11-15T11:55:09.488Z,21.75
2023-11-15T11:57:37.284Z,25.20
2023-11-15T12:00:13.585Z,17.67
2023-11-15T12:02:44.811Z,14.80
2023-11-15T12:05:17.433Z,16.90
2023-11-15T12:07:45.751Z,26.80
2023-11-15T12:10:15.043Z,22.38
2023-11-15T12:12:43.440Z,17.48
2023-11-15T12:15:14.562Z,23.35
2023-11-15T12:17:43.204Z,23.10
2023-11-15T12:20:14.723Z,16.85
2023-11-15T12:22:43.878Z,19.50
2023-11-15T12:25:14.916Z,19.13
2023-11-15T12:27:43.701Z,20.40
2023-11-15T12:30:12.380Z,25.23
2023-11-15T12:32:44.473Z,21.67
2023-11-15T12:35:12.770Z,20.23
2023-11-15T12:37:40.814Z,22.98
2023-11-15T12:40:20.767Z,15.07
2023-11-15T12:42:56.531Z,15.20
2023-11-15T12:45:30.629Z,13.40
2023-11-15T12:48:16.595Z,10.40
2023-11-15T12:50:47.307Z,14.23
2023-11-15T12:53:16.366Z,10.48
2023-11-15T12:55:56.702Z,12.43
2023-11-15T12:58:24.369Z,16.13
2023-11-15T13:01:08.590Z,9.48
2023-11-15T13:03:38.088Z,11.93
2023-11-15T13:06:12.112Z,7.13
2023-11-15T13:08:40.539Z,14.10
2023-11-15T13:11:08.605Z,8.70
2023-11-15T13:13:38.304Z,8.80
2023-11-15T13:16:06.115Z,11.60
2023-11-15T13:18:33.963Z,8.52
2023-11-15T13:21:01.959Z,7.55
2023-11-15T13:23:30.381Z,9.35
2023-11-15T13:26:00.660Z,8.18
2023-11-15T13:28:30.535Z,7.82
2023-11-15T13:30:58.258Z,7.88
2023-11-15T13:33:27.794Z,10.80
2023-11-15T13:35:55.496Z,7.85
2023-11-15T13:38:22.989Z,11.25
2023-11-15T13:40:50.762Z,14.13
2023-11-15T13:43:18.463Z,16.92
2023-11-15T13:45:46.925Z,12.73
2023-11-15T13:48:17.776Z,17.02
2023-11-15T13:50:46.147Z,15.30
2023-11-15T13:53:14.878Z,12.80
2023-11-15T13:55:42.585Z,15.73
2023-11-15T13:58:10.642Z,8.38
2023-11-15T14:00:39.083Z,13.48
2023-11-15T14:03:08.335Z,17.58
2023-11-15T14:05:36.354Z,12.20
2023-11-15T14:08:05.107Z,16.42
2023-11-15T14:10:33.016Z,17.42
2023-11-15T14:13:02.501Z,16.65
2023-11-15T14:15:30.766Z,18.77
2023-11-15T14:17:58.363Z,11.32
2023-11-15T14:20:26.429Z,17.98
2023-11-15T14:22:56.270Z,13.52
2023-11-15T14:25:24.967Z,12.85
2023-11-15T14:27:56.128Z,21.48
2023-11-15T14:30:25.925Z,14.88
2023-11-15T14:32:54.000Z,18.35
2023-11-15T14:35:22.487Z,17.90
2023-11-15T14:37:51.253Z,19.98
2023-11-15T14:40:23.239Z,18.05
2023-11-15T14:42:52.358Z,20.63
2023-11-15T14:45:21.178Z,26.38
2023-11-15T14:47:49.674Z,18.85
2023-11-15T14:50:18.220Z,16.90
2023-11-15T14:53:05.441Z,18.95
2023-11-15T14:55:33.220Z,20.75
2023-11-15T14:58:01.134Z,22.48
2023-11-15T15:00:30.646Z,13.60
2023-11-15T15:03:03.104Z,20.43
2023-11-15T15:05:30.826Z,24.00
2023-11-15T15:07:58.584Z,16.75
2023-11-15T15:10:27.421Z,20.73
2023-11-15T15:12:55.516Z,20.75
2023-11-15T15:15:23.489Z,19.30
2023-11-15T15:17:51.757Z,26.55
2023-11-15T15:20:24.721Z,22.83
2023-11-15T15:22:53.068Z,17.77
2023-11-15T15:25:21.218Z,24.17
2023-11-15T15:27:49.108Z,15.85
2023-11-15T15:30:18.254Z,24.40
2023-11-15T15:32:47.115Z,25.27
2023-11-15T15:35:15.707Z,21.42
2023-11-15T15:37:47.412Z,21.33
2023-11-15T15:40:17.740Z,25.50
2023-11-15T15:42:45.801Z,14.20
2023-11-15T15:45:16.612Z,15.70
2023-11-15T15:47:44.782Z,12.15
2023-11-15T15:50:16.106Z,16.05
2023-11-15T15:52:44.942Z,17.92
2023-11-15T15:55:13.786Z,21.17
2023-11-15T15:57:42.629Z,24.25
2023-11-15T16:00:11.528Z,21.40
2023-11-15T16:02:39.401Z,17.33
2023-11-15T16:05:07.678Z,21.70
2023-11-15T16:07:35.476Z,20.90
2023-11-15T16:10:05.464Z,23.48
2023-11-15T16:12:33.804Z,25.52
2023-11-15T16:15:01.706Z,20.00
2023-11-15T16:17:35.671Z,20.52
2023-11-15T16:20:04.852Z,25.48
2023-11-15T16:22:32.727Z,26.42
2023-11-15T16:25:00.481Z,30.38
2023-11-15T16:27:37.575Z,22.88
2023-11-15T16:30:08.032Z,30.67
2023-11-15T16:35:10.313Z,24.88
2023-11-15T16:37:42.949Z,26.27
2023-11-15T16:40:12.111Z,24.27
2023-11-15T16:42:41.227Z,20.25
2023-11-15T16:45:10.184Z,20.70
2023-11-15T16:47:40.392Z,25.30
2023-11-15T16:50:10.618Z,34.08
2023-11-15T16:52:38.782Z,23.40
2023-11-15T16:55:06.987Z,21.95
2023-11-15T16:57:34.865Z,21.17
2023-11-15T17:00:02.489Z,24.25
2023-11-15T17:02:30.752Z,34.00
2023-11-15T17:04:58.511Z,16.50
2023-11-15T17:07:26.628Z,32.80
2023-11-15T17:09:55.200Z,25.92
2023-11-15T17:12:24.656Z,26.85
2023-11-15T17:14:52.897Z,21.67
2023-11-15T17:17:20.395Z,29.02
2023-11-15T17:19:47.927Z,22.90
2023-11-15T17:22:15.563Z,22.65
2023-11-15T17:24:44.323Z,24.25
2023-11-15T17:27:12.068Z,19.45
2023-11-15T17:29:40.767Z,22.50
2023-11-15T17:32:10.251Z,22.08
2023-11-15T17:34:43.533Z,15.77
2023-11-15T17:37:13.340Z,21.77
2023-11-15T17:39:41.419Z,25.20
2023-11-15T17:42:09.395Z,18.33
2023-11-15T17:44:37.132Z,17.10
2023-11-15T17:47:05.075Z,17.02
2023-11-15T17:49:32.732Z,27.20
2023-11-15T17:52:01.805Z,26.92
2023-11-15T17:54:32.548Z,18.60
2023-11-15T17:57:00.352Z,22.83
2023-11-15T17:59:28.107Z,17.63
2023-11-15T18:01:58.376Z,21.45
2023-11-15T18:06:55.501Z,23.15
2023-11-15T18:09:23.779Z,18.08
2023-11-15T18:11:51.664Z,22.77
2023-11-15T18:14:19.417Z,17.23
2023-11-15T18:16:47.667Z,32.83
2023-11-15T18:19:21.965Z,18.95
2023-11-15T18:21:49.648Z,26.55
2023-11-15T18:24:17.677Z,16.15
2023-11-15T18:26:46.547Z,14.98
2023-11-15T18:29:14.639Z,22.83
2023-11-15T18:31:42.724Z,26.70
2023-11-15T18:34:10.996Z,20.30
2023-11-15T18:36:42.507Z,19.05
2023-11-15T18:39:15.773Z,21.67
2023-11-15T18:41:45.734Z,29.00
2023-11-15T18:44:17.569Z,21.90
2023-11-15T18:46:49.802Z,20.30
2023-11-15T18:49:19.303Z,30.02
2023-11-15T18:51:49.587Z,20.17
2023-11-15T18:54:17.628Z,27.52
2023-11-15T18:56:45.611Z,20.85
2023-11-15T18:59:13.304Z,31.50
2023-11-15T19:01:45.370Z,21.55
2023-11-15T19:04:13.513Z,19.00
2023-11-15T19:06:41.469Z,23.17
2023-11-15T19:09:12.622Z,16.60
2023-11-15T19:11:40.748Z,18.63
2023-11-15T19:14:09.736Z,19.42
2023-11-15T19:16:39.932Z,19.80
2023-11-15T19:19:10.013Z,18.90
2023-11-15T19:21:38.255Z,18.27
2023-11-15T19:24:07.446Z,22.77
2023-11-15T19:26:35.133Z,20.48
2023-11-15T19:29:02.849Z,22.00
2023-11-15T19:31:30.494Z,22.50
2023-11-15T19:33:58.097Z,26.40
2023-11-15T19:36:25.930Z,23.02
2023-11-15T19:38:53.976Z,21.23
2023-11-15T19:41:21.983Z,23.23
2023-11-15T19:43:50.090Z,25.17
2023-11-15T19:46:19.011Z,20.85
2023-11-15T19:48:47.809Z,24.55
2023-11-15T19:51:36.898Z,20.10
2023-11-15T19:54:08.887Z,22.67
2023-11-15T19:56:37.057Z,24.42
2023-11-15T19:59:05.184Z,25.20
2023-11-15T20:01:32.943Z,12.88
2023-11-15T20:04:04.341Z,20.17
2023-11-15T20:06:32.453Z,18.88
2023-11-15T20:09:00.278Z,21.63
2023-11-15T20:11:28.107Z,16.58
2023-11-15T20:13:55.684Z,21.88
2023-11-15T20:16:24.630Z,22.00
2023-11-15T20:18:52.635Z,19.65
2023-11-15T20:21:21.076Z,19.50
2023-11-15T20:23:48.890Z,17.80
2023-11-15T20:26:16.719Z,22.25
2023-11-15T20:28:45.219Z,18.15
2023-11-15T20:31:13.506Z,17.35
2023-11-15T20:33:42.687Z,24.13
2023-11-15T20:36:11.723Z,16.65
2023-11-15T20:38:39.761Z,21.95
2023-11-15T20:41:08.797Z,25.98
2023-11-15T20:43:37.293Z,18.63
2023-11-15T20:46:17.436Z,20.17
2023-11-15T20:48:47.793Z,16.70
2023-11-15T20:51:15.980Z,19.15
2023-11-15T20:53:45.083Z,15.68
2023-11-15T20:56:12.816Z,12.98
2023-11-15T20:58:41.616Z,23.77
2023-11-15T21:01:10.282Z,18.65
2023-11-15T21:03:38.598Z,16.25
2023-11-15T21:06:06.930Z,27.10
2023-11-15T21:08:36.488Z,24.40
2023-11-15T21:11:06.264Z,23.67
2023-11-15T21:13:34.302Z,19.97
2023-11-15T21:16:04.445Z,23.30
2023-11-15T21:18:32.424Z,22.13
2023-11-15T21:21:00.295Z,15.05
2023-11-15T21:23:28.694Z,23.77
2023-11-15T21:25:56.737Z,22.65
2023-11-15T21:28:24.473Z,15.82
2023-11-15T21:30:53.009Z,15.90
2023-11-15T21:33:21.630Z,15.52
2023-11-15T21:35:51.701Z,20.00
2023-11-15T21:38:20.656Z,27.05
2023-11-15T21:40:48.643Z,22.70
2023-11-15T21:43:16.383Z,20.90
2023-11-15T21:45:44.011Z,22.40
2023-11-15T21:48:11.756Z,21.70
2023-11-15T21:50:39.317Z,27.58
2023-11-15T21:53:08.018Z,22.90
2023-11-15T21:55:35.660Z,20.25
2023-11-15T21:58:08.146Z,20.38
2023-11-15T22:00:35.822Z,15.63
2023-11-15T22:03:03.601Z,20.85
2023-11-15T22:05:31.571Z,14.68
2023-11-15T22:07:59.608Z,29.83
2023-11-15T22:10:27.710Z,13.93
2023-11-15T22:12:55.437Z,21.92
2023-11-15T22:15:24.513Z,22.98
2023-11-15T22:17:52.224Z,22.65
2023-11-15T22:20:20.316Z,17.77
2023-11-15T22:22:47.933Z,16.25
2023-11-15T22:25:15.968Z,25.58
2023-11-15T22:27:43.576Z,19.42
2023-11-15T22:30:11.682Z,21.08
2023-11-15T22:32:39.577Z,20.10
2023-11-15T22:35:08.348Z,23.50
2023-11-15T22:37:36.161Z,25.58
2023-11-15T22:40:03.898Z,23.30
2023-11-15T22:42:31.537Z,17.85
2023-11-15T22:44:59.348Z,23.42
2023-11-15T22:47:27.003Z,18.80
2023-11-15T22:49:54.843Z,18.83
2023-11-15T22:52:22.407Z,25.48
2023-11-15T22:54:50.144Z,26.67
2023-11-15T22:57:18.020Z,26.35
2023-11-15T22:59:46.633Z,22.92
2023-11-15T23:02:15.472Z,19.95
2023-11-15T23:04:44.413Z,21.48
2023-11-15T23:07:12.325Z,16.33
2023-11-15T23:09:39.951Z,23.23
2023-11-15T23:12:08.067Z,25.23
2023-11-15T23:14:35.793Z,26.77
2023-11-15T23:17:04.210Z,21.05
2023-11-15T23:19:32.005Z,22.27
2023-11-15T23:22:04.228Z,23.05
2023-11-15T23:24:32.522Z,18.38
2023-11-15T23:27:01.019Z,21.52
2023-11-15T23:29:29.506Z,19.10
2023-11-15T23:31:57.849Z,23.30
2023-11-15T23:34:25.699Z,16.58
2023-11-15T23:36:53.491Z,27.65
2023-11-15T23:39:24.297Z,18.50
2023-11-15T23:41:52.003Z,16.92
2023-11-15T23:44:19.847Z,15.70
2023-11-15T23:46:51.000Z,21.30
2023-11-15T23:49:20.206Z,11.93
2023-11-15T23:51:48.048Z,19.75
2023-11-15T23:54:15.617Z,15.77
2023-11-15T23:56:43.788Z,25.75
2023-11-15T23:59:11.493Z,15.90
